sensor_id;sensor_type;location;lat;lon;timestamp;P1;P2;P0
45700;PMS5003;36277;32.852;-116.998;2023-12-22T00:00:45;25.20;25.20;19.40
45700;PMS5003;36277;32.852;-116.998;2023-12-22T00:03:13;25.40;25.40;19.40
45700;PMS5003;36277;32.852;-116.998;2023-12-22T00:05:40;23.40;23.00;18.20
45700;PMS5003;36277;32.852;-116.998;2023-12-22T00:08:07;22.60;22.60;16.60
45700;PMS5003;36277;32.852;-116.998;2023-12-22T00:10:33;19.80;19.80;15.60
45700;PMS5003;36277;32.852;-116.998;2023-12-22T00:12:59;18.20;18.20;14.80
45700;PMS5003;36277;32.852;-116.998;2023-12-22T00:15:25;16.20;16.20;15.00
45700;PMS5003;36277;32.852;-116.998;2023-12-22T00:17:52;19.60;19.00;14.80
45700;PMS5003;36277;32.852;-116.998;2023-12-22T00:20:18;17.80;17.80;13.80
45700;PMS5003;36277;32.852;-116.998;2023-12-22T00:22:44;15.40;15.40;11.20
45700;PMS5003;36277;32.852;-116.998;2023-12-22T00:25:14;13.60;13.60;10.80
45700;PMS5003;36277;32.852;-116.998;2023-12-22T00:27:40;14.00;14.00;11.20
45700;PMS5003;36277;32.852;-116.998;2023-12-22T00:30:13;13.20;13.20;10.00
45700;PMS5003;36277;32.852;-116.998;2023-12-22T00:32:39;12.80;12.80;9.00
45700;PMS5003;36277;32.852;-116.998;2023-12-22T00:35:05;11.00;11.00;9.20
45700;PMS5003;36277;32.852;-116.998;2023-12-22T00:37:32;11.00;11.00;9.40
45700;PMS5003;36277;32.852;-116.998;2023-12-22T00:39:58;10.80;10.80;8.00
45700;PMS5003;36277;32.852;-116.998;2023-12-22T00:42:24;8.60;8.60;7.40
45700;PMS5003;36277;32.852;-116.998;2023-12-22T00:44:53;9.80;9.40;7.00
45700;PMS5003;36277;32.852;-116.998;2023-12-22T00:47:20;7.80;7.80;5.80
45700;PMS5003;36277;32.852;-116.998;2023-12-22T00:49:46;9.60;9.60;7.40
45700;PMS5003;36277;32.852;-116.998;2023-12-22T00:52:12;7.40;7.40;5.80
45700;PMS5003;36277;32.852;-116.998;2023-12-22T00:54:38;8.40;8.40;5.40
45700;PMS5003;36277;32.852;-116.998;2023-12-22T00:57:05;8.60;8.60;6.00
45700;PMS5003;36277;32.852;-116.998;2023-12-22T00:59:31;11.20;10.60;7.00
45700;PMS5003;36277;32.852;-116.998;2023-12-22T01:01:58;10.00;8.80;7.00
45700;PMS5003;36277;32.852;-116.998;2023-12-22T01:04:24;6.60;6.60;5.00
45700;PMS5003;36277;32.852;-116.998;2023-12-22T01:06:50;7.00;7.00;5.00
45700;PMS5003;36277;32.852;-116.998;2023-12-22T01:09:16;7.00;7.00;6.00
45700;PMS5003;36277;32.852;-116.998;2023-12-22T01:11:45;8.00;8.00;6.20
45700;PMS5003;36277;32.852;-116.998;2023-12-22T01:14:12;7.00;7.00;5.60
45700;PMS5003;36277;32.852;-116.998;2023-12-22T01:16:41;6.00;6.00;5.00
45700;PMS5003;36277;32.852;-116.998;2023-12-22T01:19:07;6.00;6.00;4.80
45700;PMS5003;36277;32.852;-116.998;2023-12-22T01:21:33;1.80;1.80;1.00
45700;PMS5003;36277;32.852;-116.998;2023-12-22T01:23:59;8.80;8.80;4.80
45700;PMS5003;36277;32.852;-116.998;2023-12-22T01:26:25;4.20;4.20;3.00
45700;PMS5003;36277;32.852;-116.998;2023-12-22T01:28:52;6.00;5.20;4.60
45700;PMS5003;36277;32.852;-116.998;2023-12-22T01:31:18;4.40;4.40;3.40
45700;PMS5003;36277;32.852;-116.998;2023-12-22T01:33:45;6.00;6.00;5.00
45700;PMS5003;36277;32.852;-116.998;2023-12-22T01:36:11;5.00;5.00;4.60
45700;PMS5003;36277;32.852;-116.998;2023-12-22T01:38:37;5.20;5.20;3.40
45700;PMS5003;36277;32.852;-116.998;2023-12-22T01:41:03;4.80;4.80;4.00
45700;PMS5003;36277;32.852;-116.998;2023-12-22T01:43:29;3.60;3.60;3.20
45700;PMS5003;36277;32.852;-116.998;2023-12-22T01:45:56;4.00;4.00;3.40
45700;PMS5003;36277;32.852;-116.998;2023-12-22T01:48:24;3.80;3.80;3.00
45700;PMS5003;36277;32.852;-116.998;2023-12-22T01:50:51;4.40;4.40;3.60
45700;PMS5003;36277;32.852;-116.998;2023-12-22T01:53:19;5.00;5.00;3.00
45700;PMS5003;36277;32.852;-116.998;2023-12-22T01:55:49;4.40;4.40;3.40
45700;PMS5003;36277;32.852;-116.998;2023-12-22T01:58:18;4.40;4.40;4.00
45700;PMS5003;36277;32.852;-116.998;2023-12-22T02:00:45;4.40;4.40;3.60
45700;PMS5003;36277;32.852;-116.998;2023-12-22T02:03:12;5.40;5.40;4.00
45700;PMS5003;36277;32.852;-116.998;2023-12-22T02:05:43;4.00;4.00;3.60
45700;PMS5003;36277;32.852;-116.998;2023-12-22T02:08:10;5.00;5.00;4.00
45700;PMS5003;36277;32.852;-116.998;2023-12-22T02:10:38;3.40;3.40;3.00
45700;PMS5003;36277;32.852;-116.998;2023-12-22T02:13:04;4.00;4.00;3.60
45700;PMS5003;36277;32.852;-116.998;2023-12-22T02:15:31;4.20;4.20;4.00
45700;PMS5003;36277;32.852;-116.998;2023-12-22T02:18:12;4.60;4.60;4.00
45700;PMS5003;36277;32.852;-116.998;2023-12-22T02:20:43;4.00;4.00;3.60
45700;PMS5003;36277;32.852;-116.998;2023-12-22T02:23:10;3.20;3.20;2.20
45700;PMS5003;36277;32.852;-116.998;2023-12-22T02:25:37;3.80;3.80;3.00
45700;PMS5003;36277;32.852;-116.998;2023-12-22T02:28:09;4.40;4.40;3.60
45700;PMS5003;36277;32.852;-116.998;2023-12-22T02:30:42;4.00;4.00;3.00
45700;PMS5003;36277;32.852;-116.998;2023-12-22T02:33:11;4.20;4.20;4.00
45700;PMS5003;36277;32.852;-116.998;2023-12-22T02:35:41;3.00;3.00;3.00
45700;PMS5003;36277;32.852;-116.998;2023-12-22T02:38:09;4.20;4.00;3.00
45700;PMS5003;36277;32.852;-116.998;2023-12-22T02:40:38;2.60;2.60;1.60
45700;PMS5003;36277;32.852;-116.998;2023-12-22T02:43:05;2.40;2.40;2.00
45700;PMS5003;36277;32.852;-116.998;2023-12-22T02:45:33;3.40;3.40;2.40
45700;PMS5003;36277;32.852;-116.998;2023-12-22T02:48:00;3.00;3.00;2.00
45700;PMS5003;36277;32.852;-116.998;2023-12-22T02:50:50;4.00;4.00;3.00
45700;PMS5003;36277;32.852;-116.998;2023-12-22T02:53:17;3.20;3.20;3.00
45700;PMS5003;36277;32.852;-116.998;2023-12-22T02:55:44;3.00;3.00;2.20
45700;PMS5003;36277;32.852;-116.998;2023-12-22T02:58:10;2.40;2.40;2.00
45700;PMS5003;36277;32.852;-116.998;2023-12-22T03:00:38;2.20;2.20;2.00
45700;PMS5003;36277;32.852;-116.998;2023-12-22T03:03:05;3.00;3.00;3.00
45700;PMS5003;36277;32.852;-116.998;2023-12-22T03:05:32;3.80;3.80;3.80
45700;PMS5003;36277;32.852;-116.998;2023-12-22T03:07:58;3.00;3.00;3.00
45700;PMS5003;36277;32.852;-116.998;2023-12-22T03:10:29;5.00;5.00;4.00
45700;PMS5003;36277;32.852;-116.998;2023-12-22T03:12:56;2.60;2.60;2.40
45700;PMS5003;36277;32.852;-116.998;2023-12-22T03:15:22;3.40;3.40;2.00
45700;PMS5003;36277;32.852;-116.998;2023-12-22T03:17:51;3.40;3.40;3.00
45700;PMS5003;36277;32.852;-116.998;2023-12-22T03:20:17;5.00;4.00;3.00
45700;PMS5003;36277;32.852;-116.998;2023-12-22T03:22:44;3.60;3.60;2.80
45700;PMS5003;36277;32.852;-116.998;2023-12-22T03:25:10;3.40;3.40;3.40
45700;PMS5003;36277;32.852;-116.998;2023-12-22T03:27:37;0.80;0.80;0.40
45700;PMS5003;36277;32.852;-116.998;2023-12-22T03:30:03;3.20;3.00;2.40
45700;PMS5003;36277;32.852;-116.998;2023-12-22T03:32:31;4.00;4.00;3.00
45700;PMS5003;36277;32.852;-116.998;2023-12-22T03:35:18;2.00;2.00;1.40
45700;PMS5003;36277;32.852;-116.998;2023-12-22T03:37:44;1.20;1.20;1.20
45700;PMS5003;36277;32.852;-116.998;2023-12-22T03:40:11;3.00;3.00;2.40
45700;PMS5003;36277;32.852;-116.998;2023-12-22T03:42:37;0.00;0.00;0.00
45700;PMS5003;36277;32.852;-116.998;2023-12-22T03:45:04;3.40;3.40;3.00
45700;PMS5003;36277;32.852;-116.998;2023-12-22T03:47:34;3.80;3.80;2.80
45700;PMS5003;36277;32.852;-116.998;2023-12-22T03:50:00;4.00;4.00;3.20
45700;PMS5003;36277;32.852;-116.998;2023-12-22T03:52:26;2.60;2.60;2.00
45700;PMS5003;36277;32.852;-116.998;2023-12-22T03:54:53;2.80;2.80;2.20
45700;PMS5003;36277;32.852;-116.998;2023-12-22T03:57:20;2.20;2.20;1.40
45700;PMS5003;36277;32.852;-116.998;2023-12-22T03:59:46;3.00;3.00;2.20
45700;PMS5003;36277;32.852;-116.998;2023-12-22T04:02:12;3.00;3.00;2.60
45700;PMS5003;36277;32.852;-116.998;2023-12-22T04:04:39;2.40;2.40;2.00
45700;PMS5003;36277;32.852;-116.998;2023-12-22T04:07:06;3.00;3.00;2.20
45700;PMS5003;36277;32.852;-116.998;2023-12-22T04:09:32;2.20;2.20;1.80
45700;PMS5003;36277;32.852;-116.998;2023-12-22T04:11:59;2.40;2.40;2.40
45700;PMS5003;36277;32.852;-116.998;2023-12-22T04:14:25;2.40;2.40;1.60
45700;PMS5003;36277;32.852;-116.998;2023-12-22T04:16:51;2.20;2.20;2.00
45700;PMS5003;36277;32.852;-116.998;2023-12-22T04:19:18;2.60;2.60;2.00
45700;PMS5003;36277;32.852;-116.998;2023-12-22T04:21:44;3.00;3.00;2.40
45700;PMS5003;36277;32.852;-116.998;2023-12-22T04:24:11;2.00;2.00;2.00
45700;PMS5003;36277;32.852;-116.998;2023-12-22T04:26:37;1.40;1.40;1.40
45700;PMS5003;36277;32.852;-116.998;2023-12-22T04:29:03;2.80;2.80;1.80
45700;PMS5003;36277;32.852;-116.998;2023-12-22T04:31:30;3.40;3.40;2.40
45700;PMS5003;36277;32.852;-116.998;2023-12-22T04:33:56;1.40;1.40;1.40
45700;PMS5003;36277;32.852;-116.998;2023-12-22T04:36:22;2.40;2.40;2.20
45700;PMS5003;36277;32.852;-116.998;2023-12-22T04:38:48;1.00;1.00;1.00
45700;PMS5003;36277;32.852;-116.998;2023-12-22T04:41:15;3.00;3.00;2.20
45700;PMS5003;36277;32.852;-116.998;2023-12-22T04:43:41;4.20;4.20;2.40
45700;PMS5003;36277;32.852;-116.998;2023-12-22T04:46:07;2.20;2.20;1.80
45700;PMS5003;36277;32.852;-116.998;2023-12-22T04:48:33;1.40;1.40;1.20
45700;PMS5003;36277;32.852;-116.998;2023-12-22T04:51:00;2.20;2.20;2.00
45700;PMS5003;36277;32.852;-116.998;2023-12-22T04:53:26;2.60;2.60;2.20
45700;PMS5003;36277;32.852;-116.998;2023-12-22T04:55:52;3.20;3.20;2.40
45700;PMS5003;36277;32.852;-116.998;2023-12-22T04:58:19;2.20;2.20;1.40
45700;PMS5003;36277;32.852;-116.998;2023-12-22T05:00:45;3.20;3.20;2.60
45700;PMS5003;36277;32.852;-116.998;2023-12-22T05:03:11;2.40;2.40;2.00
45700;PMS5003;36277;32.852;-116.998;2023-12-22T05:05:38;2.20;2.20;2.00
45700;PMS5003;36277;32.852;-116.998;2023-12-22T05:08:04;3.60;3.60;3.00
45700;PMS5003;36277;32.852;-116.998;2023-12-22T05:10:31;2.80;2.80;2.00
45700;PMS5003;36277;32.852;-116.998;2023-12-22T05:12:57;3.60;3.60;3.40
45700;PMS5003;36277;32.852;-116.998;2023-12-22T05:15:23;3.60;3.60;2.80
45700;PMS5003;36277;32.852;-116.998;2023-12-22T05:17:50;3.00;3.00;2.40
45700;PMS5003;36277;32.852;-116.998;2023-12-22T05:20:16;2.00;2.00;2.00
45700;PMS5003;36277;32.852;-116.998;2023-12-22T05:22:42;3.60;3.60;2.80
45700;PMS5003;36277;32.852;-116.998;2023-12-22T05:25:09;2.60;2.60;2.00
45700;PMS5003;36277;32.852;-116.998;2023-12-22T05:27:35;3.40;3.40;3.00
45700;PMS5003;36277;32.852;-116.998;2023-12-22T05:30:02;3.60;3.60;3.00
45700;PMS5003;36277;32.852;-116.998;2023-12-22T05:32:29;3.40;3.40;2.80
45700;PMS5003;36277;32.852;-116.998;2023-12-22T05:34:55;2.20;2.20;2.00
45700;PMS5003;36277;32.852;-116.998;2023-12-22T05:37:22;3.00;3.00;3.00
45700;PMS5003;36277;32.852;-116.998;2023-12-22T05:39:48;2.00;2.00;2.00
45700;PMS5003;36277;32.852;-116.998;2023-12-22T05:42:14;2.60;2.60;2.20
45700;PMS5003;36277;32.852;-116.998;2023-12-22T05:44:40;3.00;3.00;3.00
45700;PMS5003;36277;32.852;-116.998;2023-12-22T05:47:07;2.00;2.00;2.00
45700;PMS5003;36277;32.852;-116.998;2023-12-22T05:49:34;2.20;2.20;2.00
45700;PMS5003;36277;32.852;-116.998;2023-12-22T05:52:00;2.60;2.60;2.00
45700;PMS5003;36277;32.852;-116.998;2023-12-22T05:54:26;2.20;2.20;1.80
45700;PMS5003;36277;32.852;-116.998;2023-12-22T05:56:52;3.00;3.00;2.60
45700;PMS5003;36277;32.852;-116.998;2023-12-22T05:59:19;2.80;2.80;2.20
45700;PMS5003;36277;32.852;-116.998;2023-12-22T06:01:45;2.80;2.80;2.00
45700;PMS5003;36277;32.852;-116.998;2023-12-22T06:04:11;2.00;2.00;2.00
45700;PMS5003;36277;32.852;-116.998;2023-12-22T06:06:37;1.80;1.80;1.20
45700;PMS5003;36277;32.852;-116.998;2023-12-22T06:09:04;2.00;2.00;1.80
45700;PMS5003;36277;32.852;-116.998;2023-12-22T06:11:30;2.00;2.00;2.00
45700;PMS5003;36277;32.852;-116.998;2023-12-22T06:13:57;2.60;2.60;2.60
45700;PMS5003;36277;32.852;-116.998;2023-12-22T06:16:23;3.00;3.00;2.40
45700;PMS5003;36277;32.852;-116.998;2023-12-22T06:18:49;2.00;2.00;1.80
45700;PMS5003;36277;32.852;-116.998;2023-12-22T06:21:15;2.00;2.00;1.00
45700;PMS5003;36277;32.852;-116.998;2023-12-22T06:23:42;3.00;3.00;2.00
45700;PMS5003;36277;32.852;-116.998;2023-12-22T06:26:08;2.00;2.00;2.00
45700;PMS5003;36277;32.852;-116.998;2023-12-22T06:28:36;2.80;2.80;2.00
45700;PMS5003;36277;32.852;-116.998;2023-12-22T06:31:03;1.00;1.00;0.00
45700;PMS5003;36277;32.852;-116.998;2023-12-22T06:33:30;3.00;3.00;2.00
45700;PMS5003;36277;32.852;-116.998;2023-12-22T06:35:56;2.00;2.00;1.00
45700;PMS5003;36277;32.852;-116.998;2023-12-22T06:38:22;1.80;1.80;1.60
45700;PMS5003;36277;32.852;-116.998;2023-12-22T06:40:49;0.00;0.00;0.00
45700;PMS5003;36277;32.852;-116.998;2023-12-22T06:43:15;0.80;0.80;0.80
45700;PMS5003;36277;32.852;-116.998;2023-12-22T06:45:42;2.80;2.80;2.00
45700;PMS5003;36277;32.852;-116.998;2023-12-22T06:48:08;2.80;2.80;2.60
45700;PMS5003;36277;32.852;-116.998;2023-12-22T06:50:37;2.00;2.00;2.00
45700;PMS5003;36277;32.852;-116.998;2023-12-22T06:53:04;1.60;1.60;1.20
45700;PMS5003;36277;32.852;-116.998;2023-12-22T06:55:31;1.80;1.80;1.00
45700;PMS5003;36277;32.852;-116.998;2023-12-22T06:57:57;2.00;2.00;1.00
45700;PMS5003;36277;32.852;-116.998;2023-12-22T07:00:23;1.40;1.40;1.40
45700;PMS5003;36277;32.852;-116.998;2023-12-22T07:02:50;1.00;1.00;1.00
45700;PMS5003;36277;32.852;-116.998;2023-12-22T07:07:48;2.00;2.00;1.40
45700;PMS5003;36277;32.852;-116.998;2023-12-22T07:10:16;2.00;2.00;2.00
45700;PMS5003;36277;32.852;-116.998;2023-12-22T07:12:42;2.00;2.00;1.80
45700;PMS5003;36277;32.852;-116.998;2023-12-22T07:15:08;1.00;1.00;1.00
45700;PMS5003;36277;32.852;-116.998;2023-12-22T07:17:36;2.00;2.00;2.00
45700;PMS5003;36277;32.852;-116.998;2023-12-22T07:20:02;1.80;1.80;1.00
45700;PMS5003;36277;32.852;-116.998;2023-12-22T07:22:29;2.00;2.00;2.00
45700;PMS5003;36277;32.852;-116.998;2023-12-22T07:24:55;2.00;2.00;1.60
45700;PMS5003;36277;32.852;-116.998;2023-12-22T07:27:21;3.00;3.00;2.80
45700;PMS5003;36277;32.852;-116.998;2023-12-22T07:29:48;3.00;3.00;3.00
45700;PMS5003;36277;32.852;-116.998;2023-12-22T07:32:14;3.60;3.60;2.60
45700;PMS5003;36277;32.852;-116.998;2023-12-22T07:34:40;5.40;5.40;4.00
45700;PMS5003;36277;32.852;-116.998;2023-12-22T07:37:07;7.00;7.00;5.00
45700;PMS5003;36277;32.852;-116.998;2023-12-22T07:39:33;7.40;7.40;6.20
45700;PMS5003;36277;32.852;-116.998;2023-12-22T07:41:59;10.60;10.60;8.00
45700;PMS5003;36277;32.852;-116.998;2023-12-22T07:44:25;9.20;9.20;7.00
45700;PMS5003;36277;32.852;-116.998;2023-12-22T07:46:58;8.80;8.80;6.00
45700;PMS5003;36277;32.852;-116.998;2023-12-22T07:49:25;10.40;10.40;8.00
45700;PMS5003;36277;32.852;-116.998;2023-12-22T07:51:52;12.40;12.40;9.00
45700;PMS5003;36277;32.852;-116.998;2023-12-22T07:54:18;11.80;11.80;9.00
45700;PMS5003;36277;32.852;-116.998;2023-12-22T07:56:45;11.60;11.60;7.20
45700;PMS5003;36277;32.852;-116.998;2023-12-22T07:59:11;10.00;10.00;7.20
45700;PMS5003;36277;32.852;-116.998;2023-12-22T08:01:37;9.80;9.80;7.80
45700;PMS5003;36277;32.852;-116.998;2023-12-22T08:04:04;8.60;8.60;7.20
45700;PMS5003;36277;32.852;-116.998;2023-12-22T08:06:30;8.20;8.20;7.00
45700;PMS5003;36277;32.852;-116.998;2023-12-22T08:08:57;8.20;8.20;6.00
45700;PMS5003;36277;32.852;-116.998;2023-12-22T08:11:23;7.60;7.60;6.40
45700;PMS5003;36277;32.852;-116.998;2023-12-22T08:13:53;7.80;7.80;5.60
45700;PMS5003;36277;32.852;-116.998;2023-12-22T08:16:19;8.40;8.40;7.00
45700;PMS5003;36277;32.852;-116.998;2023-12-22T08:18:46;7.00;7.00;6.00
45700;PMS5003;36277;32.852;-116.998;2023-12-22T08:21:19;9.60;9.60;7.00
45700;PMS5003;36277;32.852;-116.998;2023-12-22T08:23:45;7.40;7.40;6.00
45700;PMS5003;36277;32.852;-116.998;2023-12-22T08:26:11;8.00;8.00;6.00
45700;PMS5003;36277;32.852;-116.998;2023-12-22T08:28:39;7.00;7.00;6.00
45700;PMS5003;36277;32.852;-116.998;2023-12-22T08:31:05;5.60;5.60;4.80
45700;PMS5003;36277;32.852;-116.998;2023-12-22T08:33:32;8.40;8.40;6.00
45700;PMS5003;36277;32.852;-116.998;2023-12-22T08:35:58;8.00;8.00;4.20
45700;PMS5003;36277;32.852;-116.998;2023-12-22T08:38:24;8.40;8.40;6.00
45700;PMS5003;36277;32.852;-116.998;2023-12-22T08:40:51;8.20;8.20;6.20
45700;PMS5003;36277;32.852;-116.998;2023-12-22T08:43:19;7.00;7.00;5.00
45700;PMS5003;36277;32.852;-116.998;2023-12-22T08:45:45;7.20;7.20;5.60
45700;PMS5003;36277;32.852;-116.998;2023-12-22T08:48:12;6.20;6.20;4.20
45700;PMS5003;36277;32.852;-116.998;2023-12-22T08:50:38;7.00;7.00;5.00
45700;PMS5003;36277;32.852;-116.998;2023-12-22T08:53:05;7.40;7.40;5.00
45700;PMS5003;36277;32.852;-116.998;2023-12-22T08:55:31;7.00;7.00;5.60
45700;PMS5003;36277;32.852;-116.998;2023-12-22T08:57:57;6.80;6.80;5.20
45700;PMS5003;36277;32.852;-116.998;2023-12-22T09:00:23;5.80;5.80;4.20
45700;PMS5003;36277;32.852;-116.998;2023-12-22T09:02:50;4.00;4.00;3.00
45700;PMS5003;36277;32.852;-116.998;2023-12-22T09:05:16;8.00;8.00;5.40
45700;PMS5003;36277;32.852;-116.998;2023-12-22T09:07:43;7.20;7.20;5.20
45700;PMS5003;36277;32.852;-116.998;2023-12-22T09:10:10;6.40;6.40;4.80
45700;PMS5003;36277;32.852;-116.998;2023-12-22T09:12:37;6.40;6.40;5.00
45700;PMS5003;36277;32.852;-116.998;2023-12-22T09:15:04;4.40;4.40;3.60
45700;PMS5003;36277;32.852;-116.998;2023-12-22T09:17:31;7.00;7.00;6.00
45700;PMS5003;36277;32.852;-116.998;2023-12-22T09:19:58;8.20;8.20;7.40
45700;PMS5003;36277;32.852;-116.998;2023-12-22T09:22:24;5.40;5.40;5.20
45700;PMS5003;36277;32.852;-116.998;2023-12-22T09:24:50;5.40;5.40;4.40
45700;PMS5003;36277;32.852;-116.998;2023-12-22T09:27:16;7.80;7.80;6.00
45700;PMS5003;36277;32.852;-116.998;2023-12-22T09:29:43;7.40;7.40;6.80
45700;PMS5003;36277;32.852;-116.998;2023-12-22T09:32:09;5.00;5.00;4.00
45700;PMS5003;36277;32.852;-116.998;2023-12-22T09:34:35;5.00;5.00;4.00
45700;PMS5003;36277;32.852;-116.998;2023-12-22T09:37:02;1.60;1.60;0.80
45700;PMS5003;36277;32.852;-116.998;2023-12-22T09:39:28;5.40;5.40;4.20
45700;PMS5003;36277;32.852;-116.998;2023-12-22T09:41:55;5.00;5.00;4.00
45700;PMS5003;36277;32.852;-116.998;2023-12-22T09:44:21;5.60;5.60;4.00
45700;PMS5003;36277;32.852;-116.998;2023-12-22T09:46:48;4.40;4.40;4.00
45700;PMS5003;36277;32.852;-116.998;2023-12-22T09:49:23;7.20;7.20;5.00
45700;PMS5003;36277;32.852;-116.998;2023-12-22T09:51:50;6.00;6.00;5.00
45700;PMS5003;36277;32.852;-116.998;2023-12-22T09:54:17;5.40;5.40;5.00
45700;PMS5003;36277;32.852;-116.998;2023-12-22T09:56:44;2.00;2.00;2.00
45700;PMS5003;36277;32.852;-116.998;2023-12-22T09:59:12;4.20;4.20;3.60
45700;PMS5003;36277;32.852;-116.998;2023-12-22T10:01:45;4.60;4.60;4.00
45700;PMS5003;36277;32.852;-116.998;2023-12-22T10:04:13;4.60;4.60;3.40
45700;PMS5003;36277;32.852;-116.998;2023-12-22T10:06:40;5.60;5.60;4.00
45700;PMS5003;36277;32.852;-116.998;2023-12-22T10:09:07;5.20;5.20;3.60
45700;PMS5003;36277;32.852;-116.998;2023-12-22T10:11:36;3.60;3.60;3.00
45700;PMS5003;36277;32.852;-116.998;2023-12-22T10:14:03;4.40;4.40;2.80
45700;PMS5003;36277;32.852;-116.998;2023-12-22T10:16:30;2.00;2.00;1.00
45700;PMS5003;36277;32.852;-116.998;2023-12-22T10:18:58;2.20;2.20;2.00
45700;PMS5003;36277;32.852;-116.998;2023-12-22T10:21:25;4.00;4.00;3.00
45700;PMS5003;36277;32.852;-116.998;2023-12-22T10:23:55;2.60;2.60;2.00
45700;PMS5003;36277;32.852;-116.998;2023-12-22T10:26:21;3.00;3.00;2.60
45700;PMS5003;36277;32.852;-116.998;2023-12-22T10:28:47;3.00;3.00;3.00
45700;PMS5003;36277;32.852;-116.998;2023-12-22T10:31:14;4.20;4.20;3.40
45700;PMS5003;36277;32.852;-116.998;2023-12-22T10:33:42;4.00;4.00;3.40
45700;PMS5003;36277;32.852;-116.998;2023-12-22T10:36:09;3.00;3.00;2.00
45700;PMS5003;36277;32.852;-116.998;2023-12-22T10:38:36;3.80;3.80;3.00
45700;PMS5003;36277;32.852;-116.998;2023-12-22T10:41:03;4.00;4.00;3.00
45700;PMS5003;36277;32.852;-116.998;2023-12-22T10:43:30;2.00;2.00;2.00
45700;PMS5003;36277;32.852;-116.998;2023-12-22T10:46:05;3.00;3.00;2.60
45700;PMS5003;36277;32.852;-116.998;2023-12-22T10:48:36;2.40;2.40;2.00
45700;PMS5003;36277;32.852;-116.998;2023-12-22T10:51:02;3.00;3.00;2.00
45700;PMS5003;36277;32.852;-116.998;2023-12-22T10:53:29;2.80;2.80;2.40
45700;PMS5003;36277;32.852;-116.998;2023-12-22T10:55:56;2.40;2.40;2.00
45700;PMS5003;36277;32.852;-116.998;2023-12-22T10:58:22;1.40;1.40;1.00
45700;PMS5003;36277;32.852;-116.998;2023-12-22T11:00:49;3.00;3.00;2.00
45700;PMS5003;36277;32.852;-116.998;2023-12-22T11:03:17;2.00;2.00;1.60
45700;PMS5003;36277;32.852;-116.998;2023-12-22T11:05:45;3.00;3.00;2.20
45700;PMS5003;36277;32.852;-116.998;2023-12-22T11:08:13;2.80;2.80;2.60
45700;PMS5003;36277;32.852;-116.998;2023-12-22T11:10:44;2.20;2.20;2.00
45700;PMS5003;36277;32.852;-116.998;2023-12-22T11:13:17;1.20;1.20;1.00
45700;PMS5003;36277;32.852;-116.998;2023-12-22T11:15:46;2.00;2.00;2.00
45700;PMS5003;36277;32.852;-116.998;2023-12-22T11:18:13;2.00;2.00;2.00
45700;PMS5003;36277;32.852;-116.998;2023-12-22T11:20:42;2.00;2.00;2.00
45700;PMS5003;36277;32.852;-116.998;2023-12-22T11:23:10;0.20;0.20;0.00
45700;PMS5003;36277;32.852;-116.998;2023-12-22T11:25:39;2.00;2.00;1.00
45700;PMS5003;36277;32.852;-116.998;2023-12-22T11:28:07;1.00;1.00;1.00
45700;PMS5003;36277;32.852;-116.998;2023-12-22T11:30:35;2.00;2.00;1.40
45700;PMS5003;36277;32.852;-116.998;2023-12-22T11:33:02;1.20;1.20;1.00
45700;PMS5003;36277;32.852;-116.998;2023-12-22T11:35:30;1.60;1.60;1.20
45700;PMS5003;36277;32.852;-116.998;2023-12-22T11:37:57;1.00;1.00;1.00
45700;PMS5003;36277;32.852;-116.998;2023-12-22T11:40:26;2.20;2.20;2.00
45700;PMS5003;36277;32.852;-116.998;2023-12-22T11:42:52;2.00;2.00;1.80
45700;PMS5003;36277;32.852;-116.998;2023-12-22T11:45:20;2.00;2.00;1.80
45700;PMS5003;36277;32.852;-116.998;2023-12-22T11:47:48;2.00;2.00;1.60
45700;PMS5003;36277;32.852;-116.998;2023-12-22T11:50:27;1.80;1.80;1.80
45700;PMS5003;36277;32.852;-116.998;2023-12-22T11:53:16;1.80;1.80;1.80
45700;PMS5003;36277;32.852;-116.998;2023-12-22T11:55:56;1.00;1.00;1.00
45700;PMS5003;36277;32.852;-116.998;2023-12-22T12:01:21;1.60;1.60;1.00
45700;PMS5003;36277;32.852;-116.998;2023-12-22T12:08:58;1.00;1.00;0.80
45700;PMS5003;36277;32.852;-116.998;2023-12-22T12:14:29;1.00;1.00;1.00
45700;PMS5003;36277;32.852;-116.998;2023-12-22T12:17:00;1.60;1.60;1.60
45700;PMS5003;36277;32.852;-116.998;2023-12-22T12:19:39;1.00;1.00;0.60
45700;PMS5003;36277;32.852;-116.998;2023-12-22T12:22:11;1.60;1.60;1.00
45700;PMS5003;36277;32.852;-116.998;2023-12-22T12:24:41;0.20;0.20;0.00
45700;PMS5003;36277;32.852;-116.998;2023-12-22T12:27:08;1.00;1.00;1.00
45700;PMS5003;36277;32.852;-116.998;2023-12-22T12:29:34;1.00;1.00;1.00
45700;PMS5003;36277;32.852;-116.998;2023-12-22T12:32:07;1.00;1.00;0.20
45700;PMS5003;36277;32.852;-116.998;2023-12-22T12:34:33;1.60;1.60;1.60
45700;PMS5003;36277;32.852;-116.998;2023-12-22T12:37:01;1.00;1.00;1.00
45700;PMS5003;36277;32.852;-116.998;2023-12-22T12:39:29;1.00;1.00;1.00
45700;PMS5003;36277;32.852;-116.998;2023-12-22T12:42:00;1.40;1.40;1.00
45700;PMS5003;36277;32.852;-116.998;2023-12-22T12:44:29;1.00;1.00;1.00
45700;PMS5003;36277;32.852;-116.998;2023-12-22T12:46:58;1.00;1.00;1.00
45700;PMS5003;36277;32.852;-116.998;2023-12-22T12:49:25;1.00;1.00;1.00
45700;PMS5003;36277;32.852;-116.998;2023-12-22T12:51:54;1.00;1.00;1.00
45700;PMS5003;36277;32.852;-116.998;2023-12-22T12:54:21;1.00;1.00;1.00
45700;PMS5003;36277;32.852;-116.998;2023-12-22T12:56:47;1.00;1.00;0.20
45700;PMS5003;36277;32.852;-116.998;2023-12-22T12:59:14;1.00;1.00;1.00
45700;PMS5003;36277;32.852;-116.998;2023-12-22T13:01:42;1.00;1.00;1.00
45700;PMS5003;36277;32.852;-116.998;2023-12-22T13:04:10;1.00;1.00;0.60
45700;PMS5003;36277;32.852;-116.998;2023-12-22T13:06:50;1.00;1.00;1.00
45700;PMS5003;36277;32.852;-116.998;2023-12-22T13:09:17;1.00;1.00;1.00
45700;PMS5003;36277;32.852;-116.998;2023-12-22T13:11:44;1.00;1.00;1.00
45700;PMS5003;36277;32.852;-116.998;2023-12-22T13:14:12;0.00;0.00;0.00
45700;PMS5003;36277;32.852;-116.998;2023-12-22T13:16:48;0.00;0.00;0.00
45700;PMS5003;36277;32.852;-116.998;2023-12-22T13:19:14;0.40;0.40;0.40
45700;PMS5003;36277;32.852;-116.998;2023-12-22T13:21:41;0.00;0.00;0.00
45700;PMS5003;36277;32.852;-116.998;2023-12-22T13:24:14;0.00;0.00;0.00
45700;PMS5003;36277;32.852;-116.998;2023-12-22T13:26:41;1.00;1.00;1.00
45700;PMS5003;36277;32.852;-116.998;2023-12-22T13:29:09;1.00;1.00;0.20
45700;PMS5003;36277;32.852;-116.998;2023-12-22T13:31:37;1.00;1.00;1.00
45700;PMS5003;36277;32.852;-116.998;2023-12-22T13:34:12;1.00;1.00;1.00
45700;PMS5003;36277;32.852;-116.998;2023-12-22T13:36:39;1.00;1.00;1.00
45700;PMS5003;36277;32.852;-116.998;2023-12-22T13:39:07;1.00;1.00;0.40
45700;PMS5003;36277;32.852;-116.998;2023-12-22T13:41:34;0.00;0.00;0.00
45700;PMS5003;36277;32.852;-116.998;2023-12-22T13:44:05;0.80;0.80;0.00
45700;PMS5003;36277;32.852;-116.998;2023-12-22T13:46:32;0.80;0.80;0.80
45700;PMS5003;36277;32.852;-116.998;2023-12-22T13:49:03;0.00;0.00;0.00
45700;PMS5003;36277;32.852;-116.998;2023-12-22T13:51:40;0.00;0.00;0.00
45700;PMS5003;36277;32.852;-116.998;2023-12-22T13:54:06;0.00;0.00;0.00
45700;PMS5003;36277;32.852;-116.998;2023-12-22T13:56:33;0.00;0.00;0.00
45700;PMS5003;36277;32.852;-116.998;2023-12-22T13:59:05;0.00;0.00;0.00